createdAt,value
2022-10-05T00:01:31.819Z,10.38
2022-10-05T00:04:21.725Z,12.77
2022-10-05T00:07:00.252Z,12.85
2022-10-05T00:09:31.100Z,11.07
2022-10-05T00:11:58.039Z,12.30
2022-10-05T00:14:35.538Z,11.43
2022-10-05T00:17:05.165Z,10.95
2022-10-05T00:19:38.181Z,9.65
2022-10-05T00:22:15.758Z,9.63
2022-10-05T00:24:43.474Z,11.40
2022-10-05T00:27:31.270Z,16.13
2022-10-05T00:30:02.574Z,10.60
2022-10-05T00:32:30.018Z,8.95
2022-10-05T00:34:57.726Z,8.02
2022-10-05T00:37:24.779Z,12.63
2022-10-05T00:39:53.478Z,10.18
2022-10-05T00:42:26.293Z,9.73
2022-10-05T00:45:03.893Z,9.23
2022-10-05T00:47:50.967Z,7.72
2022-10-05T00:50:27.727Z,8.48
2022-10-05T00:53:22.766Z,7.03
2022-10-05T00:56:13.044Z,7.30
2022-10-05T00:59:01.623Z,9.50
2022-10-05T01:01:54.420Z,17.23
2022-10-05T01:07:07.898Z,11.00
2022-10-05T01:10:11.229Z,10.38
2022-10-05T01:12:50.314Z,11.77
2022-10-05T01:15:20.061Z,7.72
2022-10-05T01:18:22.683Z,8.25
2022-10-05T01:20:54.758Z,7.93
2022-10-05T01:23:40.604Z,6.32
2022-10-05T01:26:23.339Z,10.95
2022-10-05T01:29:05.243Z,6.47
2022-10-05T01:31:37.466Z,10.90
2022-10-05T01:37:08.844Z,5.53
2022-10-05T01:39:47.360Z,5.82
2022-10-05T01:42:48.073Z,6.28
2022-10-05T01:45:38.630Z,6.72
2022-10-05T01:49:02.588Z,6.40
2022-10-05T01:51:51.311Z,9.60
2022-10-05T01:54:36.796Z,8.77
2022-10-05T01:57:19.141Z,11.55
2022-10-05T02:00:09.033Z,7.90
2022-10-05T02:02:47.752Z,6.13
2022-10-05T02:05:22.346Z,7.82
2022-10-05T02:07:56.077Z,9.27
2022-10-05T02:10:30.359Z,8.52
2022-10-05T02:13:15.621Z,11.52
2022-10-05T02:15:46.264Z,11.98
2022-10-05T02:18:30.255Z,25.98
2022-10-05T02:21:02.993Z,34.42
2022-10-05T02:23:33.659Z,51.22
2022-10-05T02:26:01.509Z,45.08
2022-10-05T02:28:55.482Z,27.65
2022-10-05T02:31:50.459Z,30.00
2022-10-05T02:34:22.673Z,26.00
2022-10-05T02:37:10.319Z,18.70
2022-10-05T02:39:47.741Z,18.50
2022-10-05T02:42:32.951Z,20.73
2022-10-05T02:44:59.559Z,17.45
2022-10-05T02:47:43.259Z,22.05
2022-10-05T02:50:16.200Z,22.25
2022-10-05T02:53:12.754Z,23.02
2022-10-05T02:56:20.175Z,21.27
2022-10-05T02:58:50.224Z,8.68
2022-10-05T03:01:28.100Z,7.68
2022-10-05T03:04:11.663Z,7.70
2022-10-05T03:07:07.690Z,7.75
2022-10-05T03:09:41.382Z,6.68
2022-10-05T03:12:17.694Z,7.05
2022-10-05T03:15:09.583Z,5.53
2022-10-05T03:18:21.734Z,7.18
2022-10-05T03:20:57.642Z,10.43
2022-10-05T03:23:33.178Z,14.13
2022-10-05T03:26:09.001Z,10.75
2022-10-05T03:28:58.809Z,14.55
2022-10-05T03:31:46.105Z,5.88
2022-10-05T03:34:22.502Z,9.77
2022-10-05T03:37:31.585Z,4.93
2022-10-05T03:40:09.550Z,4.72
2022-10-05T03:42:39.843Z,4.50
2022-10-05T03:45:25.594Z,3.42
2022-10-05T03:48:01.832Z,4.38
2022-10-05T03:50:54.505Z,7.43
2022-10-05T03:53:38.548Z,9.60
2022-10-05T03:56:13.690Z,5.75
2022-10-05T03:59:03.009Z,5.10
2022-10-05T04:01:39.805Z,4.68
2022-10-05T04:04:13.736Z,5.68
2022-10-05T04:06:49.225Z,5.72
2022-10-05T04:09:39.521Z,5.13
2022-10-05T04:12:15.353Z,11.32
2022-10-05T04:14:48.471Z,7.75
2022-10-05T04:17:19.378Z,9.07
2022-10-05T04:20:02.238Z,6.47
2022-10-05T04:22:37.260Z,7.93
2022-10-05T04:25:19.031Z,6.13
2022-10-05T04:30:41.776Z,5.53
2022-10-05T04:33:11.652Z,5.45
2022-10-05T04:36:00.044Z,8.02
2022-10-05T04:39:05.309Z,8.88
2022-10-05T04:41:52.174Z,7.22
2022-10-05T04:44:48.251Z,6.65
2022-10-05T04:47:29.346Z,6.18
2022-10-05T04:50:34.233Z,5.80
2022-10-05T04:53:33.574Z,5.20
2022-10-05T04:56:07.056Z,5.43
2022-10-05T04:58:45.609Z,5.32
2022-10-05T05:01:35.872Z,5.40
2022-10-05T05:04:27.380Z,5.63
2022-10-05T05:07:15.252Z,5.45
2022-10-05T05:09:41.916Z,6.50
2022-10-05T05:12:43.727Z,7.32
2022-10-05T05:15:30.205Z,8.38
2022-10-05T05:18:12.763Z,6.70
2022-10-05T05:20:45.334Z,4.70
2022-10-05T05:23:44.472Z,5.55
2022-10-05T05:26:29.603Z,5.22
2022-10-05T05:29:33.896Z,6.47
2022-10-05T05:32:24.998Z,6.63
2022-10-05T05:34:57.982Z,7.65
2022-10-05T05:37:52.178Z,5.72
2022-10-05T05:40:35.200Z,5.68
2022-10-05T05:43:20.874Z,5.10
2022-10-05T05:46:34.015Z,6.97
2022-10-05T05:49:22.781Z,6.37
2022-10-05T05:52:16.103Z,5.45
2022-10-05T05:54:54.749Z,7.88
2022-10-05T05:57:38.772Z,7.30
2022-10-05T06:00:15.100Z,6.80
2022-10-05T06:03:15.050Z,7.20
2022-10-05T06:05:49.901Z,6.60
2022-10-05T06:08:29.123Z,7.22
2022-10-05T06:11:11.228Z,5.68
2022-10-05T06:13:42.592Z,5.88
2022-10-05T06:16:39.139Z,7.32
2022-10-05T06:19:13.953Z,6.95
2022-10-05T06:21:40.908Z,7.00
2022-10-05T06:24:31.820Z,8.65
2022-10-05T06:27:20.534Z,7.90
2022-10-05T06:30:04.634Z,6.32
2022-10-05T06:32:49.927Z,5.03
2022-10-05T06:35:17.780Z,5.93
2022-10-05T06:38:08.156Z,6.40
2022-10-05T06:40:59.466Z,6.38
2022-10-05T06:43:29.449Z,6.55
2022-10-05T06:46:29.128Z,5.05
2022-10-05T06:49:19.148Z,5.78
2022-10-05T06:52:16.279Z,6.05
2022-10-05T06:55:30.333Z,4.55
2022-10-05T06:58:18.636Z,5.82
2022-10-05T07:01:02.964Z,6.13
2022-10-05T07:03:49.530Z,9.73
2022-10-05T07:06:34.175Z,8.43
2022-10-05T07:09:37.530Z,10.95
2022-10-05T07:12:09.968Z,9.73
2022-10-05T07:14:48.659Z,9.65
2022-10-05T07:17:44.312Z,12.07
2022-10-05T07:20:17.377Z,13.52
2022-10-05T07:23:23.069Z,11.00
2022-10-05T07:26:01.900Z,7.10
2022-10-05T07:28:39.367Z,8.40
2022-10-05T07:31:31.648Z,7.32
2022-10-05T07:34:15.445Z,8.27
2022-10-05T07:37:09.793Z,6.22
2022-10-05T07:40:01.088Z,7.75
2022-10-05T07:43:08.898Z,7.30
2022-10-05T07:45:46.852Z,5.82
2022-10-05T07:48:33.209Z,5.68
2022-10-05T07:51:27.587Z,5.75
2022-10-05T07:54:13.629Z,5.53
2022-10-05T07:56:44.499Z,5.63
2022-10-05T07:59:22.337Z,4.53
2022-10-05T08:01:59.723Z,5.90
2022-10-05T08:04:55.895Z,4.65
2022-10-05T08:09:59.501Z,5.78
2022-10-05T08:13:07.671Z,4.25
2022-10-05T08:15:43.244Z,5.82
2022-10-05T08:18:39.743Z,5.10
2022-10-05T08:21:12.010Z,4.68
2022-10-05T08:23:55.273Z,6.45
2022-10-05T08:26:33.597Z,8.02
2022-10-05T08:29:19.021Z,6.05
2022-10-05T08:32:02.550Z,7.50
2022-10-05T08:34:47.869Z,7.55
2022-10-05T08:37:21.410Z,6.13
2022-10-05T08:39:52.649Z,6.22
2022-10-05T08:42:35.454Z,5.38
2022-10-05T08:45:20.929Z,7.43
2022-10-05T08:48:15.457Z,5.60
2022-10-05T08:51:03.885Z,6.25
2022-10-05T08:53:45.592Z,5.25
2022-10-05T08:56:42.458Z,6.32
2022-10-05T08:59:47.364Z,10.00
2022-10-05T09:02:38.990Z,6.15
2022-10-05T09:05:24.474Z,6.95
2022-10-05T09:08:03.629Z,7.43
2022-10-05T09:10:58.205Z,9.13
2022-10-05T09:13:39.607Z,5.75
2022-10-05T09:16:15.284Z,7.88
2022-10-05T09:19:02.197Z,6.40
2022-10-05T09:21:36.747Z,6.53
2022-10-05T09:24:12.549Z,4.93
2022-10-05T09:26:59.296Z,6.63
2022-10-05T09:29:31.888Z,6.13
2022-10-05T09:32:34.316Z,5.78
2022-10-05T09:35:09.985Z,6.88
2022-10-05T09:37:36.585Z,5.40
2022-10-05T09:40:27.957Z,8.48
2022-10-05T09:43:03.771Z,8.90
2022-10-05T09:45:35.806Z,8.20
2022-10-05T09:48:25.948Z,6.63
2022-10-05T09:51:10.822Z,8.10
2022-10-05T09:53:52.685Z,10.35
2022-10-05T09:56:40.934Z,9.43
2022-10-05T09:59:25.887Z,8.95
2022-10-05T10:02:16.400Z,9.77
2022-10-05T10:04:56.318Z,8.23
2022-10-05T10:07:53.968Z,7.72
2022-10-05T10:10:58.358Z,6.68
2022-10-05T10:14:00.861Z,7.07
2022-10-05T10:16:40.901Z,6.35
2022-10-05T10:19:35.655Z,6.78
2022-10-05T10:22:05.337Z,9.55
2022-10-05T10:24:53.763Z,8.50
2022-10-05T10:27:33.737Z,10.65
2022-10-05T10:30:09.429Z,9.32
2022-10-05T10:32:51.330Z,9.18
2022-10-05T10:38:42.312Z,8.15
2022-10-05T10:41:39.586Z,9.70
2022-10-05T10:44:27.761Z,8.23
2022-10-05T10:47:13.686Z,7.60
2022-10-05T10:50:30.317Z,7.30
2022-10-05T10:53:12.654Z,6.75
2022-10-05T10:56:07.545Z,6.53
2022-10-05T10:58:59.678Z,8.02
2022-10-05T11:01:54.997Z,6.22
2022-10-05T11:04:40.610Z,6.22
2022-10-05T11:07:22.466Z,5.68
2022-10-05T11:10:09.056Z,5.25
2022-10-05T11:12:51.629Z,7.82
2022-10-05T11:15:52.519Z,6.20
2022-10-05T11:18:41.137Z,7.70
2022-10-05T11:21:17.032Z,7.95
2022-10-05T11:24:13.086Z,4.30
2022-10-05T11:26:39.917Z,5.53
2022-10-05T11:29:06.485Z,4.95
2022-10-05T11:31:42.489Z,6.95
2022-10-05T11:34:40.905Z,4.32
2022-10-05T11:37:13.521Z,3.70
2022-10-05T11:40:02.896Z,4.43
2022-10-05T11:42:41.964Z,6.00
2022-10-05T11:45:23.996Z,4.78
2022-10-05T11:48:21.901Z,3.28
2022-10-05T11:51:17.469Z,3.10
2022-10-05T11:54:06.692Z,3.42
2022-10-05T11:56:57.307Z,4.13
2022-10-05T11:59:37.193Z,3.75
2022-10-05T12:02:43.101Z,3.03
2022-10-05T12:05:32.635Z,3.05
2022-10-05T12:08:35.969Z,3.70
2022-10-05T12:11:15.679Z,2.75
2022-10-05T12:13:48.424Z,4.72
2022-10-05T12:16:28.745Z,3.10
2022-10-05T12:19:09.082Z,3.28
2022-10-05T12:21:44.291Z,2.92
2022-10-05T12:24:30.184Z,3.45
2022-10-05T12:27:02.809Z,3.42
2022-10-05T12:29:35.378Z,3.22
2022-10-05T12:32:13.466Z,4.03
2022-10-05T12:35:03.290Z,2.90
2022-10-05T12:37:54.199Z,5.90
2022-10-05T12:40:31.978Z,3.58
2022-10-05T12:43:20.588Z,1.80
2022-10-05T12:46:03.511Z,2.25
2022-10-05T12:49:14.926Z,4.38
2022-10-05T12:51:48.099Z,2.70
2022-10-05T12:54:33.105Z,4.63
2022-10-05T12:57:18.878Z,4.07
2022-10-05T12:59:55.086Z,3.22
2022-10-05T13:02:32.592Z,2.40
2022-10-05T13:05:02.330Z,2.45
2022-10-05T13:07:35.205Z,2.63
2022-10-05T13:10:24.683Z,3.83
2022-10-05T13:13:16.205Z,2.83
2022-10-05T13:16:15.795Z,3.33
2022-10-05T13:19:07.604Z,2.97
2022-10-05T13:21:53.532Z,1.95
2022-10-05T13:24:59.498Z,2.25
2022-10-05T13:27:35.516Z,3.17
2022-10-05T13:30:05.821Z,3.88
2022-10-05T13:32:36.453Z,3.17
2022-10-05T13:35:13.462Z,2.17
2022-10-05T13:38:01.803Z,2.33
2022-10-05T13:40:45.120Z,2.97
2022-10-05T13:43:23.674Z,2.88
2022-10-05T13:45:52.766Z,2.63
2022-10-05T13:48:50.525Z,4.32
2022-10-05T13:51:24.568Z,2.40
2022-10-05T13:54:14.298Z,5.28
2022-10-05T13:56:46.151Z,3.58
2022-10-05T13:59:40.284Z,2.05
2022-10-05T14:02:21.038Z,2.03
2022-10-05T14:04:59.019Z,1.92
2022-10-05T14:07:34.223Z,4.55
2022-10-05T14:10:03.122Z,1.88
2022-10-05T14:12:39.722Z,3.35
2022-10-05T14:15:42.084Z,3.72
2022-10-05T14:18:24.316Z,2.53
2022-10-05T14:23:36.465Z,2.35
2022-10-05T14:26:04.434Z,3.00
2022-10-05T14:28:38.468Z,3.33
2022-10-05T14:31:26.607Z,3.08
2022-10-05T14:33:53.437Z,3.25
2022-10-05T14:36:36.277Z,5.07
2022-10-05T14:39:05.168Z,3.88
2022-10-05T14:41:37.626Z,3.53
2022-10-05T14:44:13.445Z,1.33
2022-10-05T14:46:53.254Z,2.35
2022-10-05T14:49:36.237Z,2.17
2022-10-05T14:52:28.828Z,2.33
2022-10-05T14:55:08.790Z,1.98
2022-10-05T14:58:09.206Z,6.95
2022-10-05T15:00:48.955Z,1.60
2022-10-05T15:03:31.874Z,5.03
2022-10-05T15:06:01.718Z,2.10
2022-10-05T15:08:45.261Z,2.13
2022-10-05T15:11:36.819Z,2.15
2022-10-05T15:14:14.673Z,2.40
2022-10-05T15:16:42.217Z,3.65
2022-10-05T15:20:05.195Z,2.17
2022-10-05T15:22:41.163Z,2.70
2022-10-05T15:25:22.262Z,2.83
2022-10-05T15:28:04.134Z,2.60
2022-10-05T15:33:35.546Z,4.57
2022-10-05T15:36:14.891Z,4.85
2022-10-05T15:38:44.758Z,6.22
2022-10-05T15:41:17.770Z,6.13
2022-10-05T15:43:47.206Z,3.80
2022-10-05T15:46:35.631Z,3.25
2022-10-05T15:49:11.598Z,2.10
2022-10-05T15:51:45.237Z,6.13
2022-10-05T15:54:40.058Z,3.38
2022-10-05T15:57:25.102Z,4.28
2022-10-05T16:00:02.122Z,2.35
2022-10-05T16:02:51.349Z,3.70
2022-10-05T16:05:57.874Z,2.45
2022-10-05T16:08:54.037Z,2.75
2022-10-05T16:11:33.340Z,2.75
2022-10-05T16:14:19.406Z,4.03
2022-10-05T16:17:10.828Z,4.50
2022-10-05T16:19:56.622Z,4.75
2022-10-05T16:22:37.853Z,3.50
2022-10-05T16:25:23.446Z,5.63
2022-10-05T16:28:22.902Z,2.97
2022-10-05T16:31:01.191Z,3.83
2022-10-05T16:33:56.637Z,2.95
2022-10-05T16:36:43.132Z,8.43
2022-10-05T16:39:20.532Z,2.15
2022-10-05T16:41:59.976Z,2.75
2022-10-05T16:44:48.048Z,4.93
2022-10-05T16:47:33.114Z,3.42
2022-10-05T16:50:17.877Z,4.00
2022-10-05T16:52:50.539Z,3.70
2022-10-05T16:55:38.830Z,2.67
2022-10-05T16:58:15.940Z,3.28
2022-10-05T17:01:02.129Z,3.03
2022-10-05T17:04:00.162Z,4.18
2022-10-05T17:06:30.179Z,2.78
2022-10-05T17:09:19.317Z,3.67
2022-10-05T17:12:20.794Z,2.70
2022-10-05T17:15:20.768Z,5.40
2022-10-05T17:18:16.664Z,7.65
2022-10-05T17:20:43.293Z,4.68
2022-10-05T17:23:31.289Z,3.80
2022-10-05T17:26:34.565Z,7.65
2022-10-05T17:29:15.565Z,3.45
2022-10-05T17:32:09.580Z,4.32
2022-10-05T17:34:56.893Z,6.78
2022-10-05T17:37:38.013Z,3.55
2022-10-05T17:40:30.752Z,5.07
2022-10-05T17:43:18.374Z,3.30
2022-10-05T17:45:45.049Z,3.80
2022-10-05T17:48:12.899Z,4.47
2022-10-05T17:51:01.182Z,6.40
2022-10-05T17:54:01.585Z,6.05
2022-10-05T17:56:29.659Z,5.35
2022-10-05T17:58:59.469Z,3.90
2022-10-05T18:01:30.298Z,6.35
2022-10-05T18:04:24.871Z,7.57
2022-10-05T18:07:15.267Z,4.95
2022-10-05T18:10:20.115Z,7.55
2022-10-05T18:12:51.214Z,4.65
2022-10-05T18:15:24.115Z,6.57
2022-10-05T18:17:56.113Z,6.57
2022-10-05T18:23:23.181Z,4.03
2022-10-05T18:26:01.405Z,3.42
2022-10-05T18:29:14.087Z,3.03
2022-10-05T18:31:51.348Z,5.18
2022-10-05T18:34:38.508Z,3.50
2022-10-05T18:37:21.586Z,4.93
2022-10-05T18:40:01.711Z,4.15
2022-10-05T18:42:28.381Z,3.97
2022-10-05T18:45:21.933Z,6.00
2022-10-05T18:48:07.420Z,3.65
2022-10-05T18:50:51.348Z,4.72
2022-10-05T18:53:30.140Z,4.32
2022-10-05T18:56:21.647Z,3.72
2022-10-05T18:59:00.866Z,3.88
2022-10-05T19:01:55.318Z,5.78
2022-10-05T19:04:43.757Z,5.68
2022-10-05T19:07:23.206Z,4.60
2022-10-05T19:09:57.678Z,4.60
2022-10-05T19:12:41.238Z,3.85
2022-10-05T19:15:17.305Z,3.70
2022-10-05T19:17:49.967Z,4.55
2022-10-05T19:20:19.472Z,4.07
2022-10-05T19:23:09.477Z,6.15
2022-10-05T19:26:11.922Z,9.93
2022-10-05T19:29:09.033Z,5.43
2022-10-05T19:31:44.506Z,4.00
2022-10-05T19:34:56.578Z,3.90
2022-10-05T19:37:42.405Z,6.20
2022-10-05T19:40:24.424Z,5.18
2022-10-05T19:43:15.591Z,5.30
2022-10-05T19:46:14.076Z,5.00
2022-10-05T19:48:48.584Z,6.20
2022-10-05T19:51:28.794Z,6.85
2022-10-05T19:54:02.480Z,4.93
2022-10-05T19:56:34.324Z,3.90
2022-10-05T19:59:17.476Z,5.72
2022-10-05T20:01:50.154Z,5.70
2022-10-05T20:04:32.099Z,6.70
2022-10-05T20:06:59.717Z,4.85
2022-10-05T20:09:26.404Z,5.80
2022-10-05T20:11:53.574Z,5.07
2022-10-05T20:14:29.306Z,6.30
2022-10-05T20:17:44.466Z,4.82
2022-10-05T20:20:45.750Z,3.58
2022-10-05T20:23:28.031Z,4.88
2022-10-05T20:26:13.323Z,3.65
2022-10-05T20:28:40.192Z,4.70
2022-10-05T20:31:08.041Z,4.25
2022-10-05T20:33:34.947Z,7.32
2022-10-05T20:36:03.713Z,7.07
2022-10-05T20:38:31.640Z,8.13
2022-10-05T20:40:58.640Z,5.90
2022-10-05T20:43:25.318Z,6.22
2022-10-05T20:45:52.331Z,4.65
2022-10-05T20:48:19.592Z,3.83
2022-10-05T20:50:47.339Z,3.45
2022-10-05T20:53:14.042Z,4.80
2022-10-05T20:55:40.749Z,3.58
2022-10-05T20:58:09.070Z,4.85
2022-10-05T21:00:54.614Z,4.55
2022-10-05T21:03:21.321Z,3.38
2022-10-05T21:05:48.025Z,5.15
2022-10-05T21:08:15.275Z,4.90
2022-10-05T21:10:41.949Z,4.55
2022-10-05T21:13:09.146Z,6.97
2022-10-05T21:15:35.837Z,5.25
2022-10-05T21:18:02.521Z,5.57
2022-10-05T21:20:29.166Z,7.15
2022-10-05T21:22:55.770Z,6.03
2022-10-05T21:25:22.591Z,4.68
2022-10-05T21:27:50.312Z,7.03
2022-10-05T21:30:17.184Z,5.90
2022-10-05T21:32:44.820Z,6.00
2022-10-05T21:35:11.666Z,5.40
2022-10-05T21:37:38.486Z,4.40
2022-10-05T21:40:05.590Z,3.90
2022-10-05T21:42:32.591Z,4.10
2022-10-05T21:44:59.338Z,4.78
2022-10-05T21:47:26.346Z,4.55
2022-10-05T21:49:54.015Z,3.83
2022-10-05T21:52:21.489Z,3.13
2022-10-05T21:54:48.212Z,4.15
2022-10-05T21:57:15.437Z,4.50
2022-10-05T21:59:42.641Z,3.20
2022-10-05T22:02:09.312Z,4.45
2022-10-05T22:04:35.982Z,6.75
2022-10-05T22:07:10.553Z,4.00
2022-10-05T22:09:37.193Z,3.97
2022-10-05T22:12:04.002Z,5.20
2022-10-05T22:14:31.497Z,4.38
2022-10-05T22:16:58.171Z,3.33
2022-10-05T22:19:24.830Z,3.17
2022-10-05T22:21:51.541Z,4.03
2022-10-05T22:24:18.179Z,4.75
2022-10-05T22:26:47.305Z,3.30
2022-10-05T22:29:15.955Z,3.60
2022-10-05T22:31:43.003Z,4.50
2022-10-05T22:34:09.741Z,3.58
2022-10-05T22:36:37.462Z,2.65
2022-10-05T22:39:04.454Z,4.80
2022-10-05T22:41:31.233Z,5.28
2022-10-05T22:43:57.890Z,4.07
2022-10-05T22:46:26.127Z,4.45
2022-10-05T22:48:52.816Z,3.45
2022-10-05T22:51:19.522Z,4.55
2022-10-05T22:53:46.180Z,4.15
2022-10-05T22:56:14.370Z,3.50
2022-10-05T22:58:42.369Z,3.85
2022-10-05T23:01:12.231Z,3.40
2022-10-05T23:03:39.551Z,3.95
2022-10-05T23:06:15.264Z,3.72
2022-10-05T23:08:43.124Z,4.13
2022-10-05T23:11:18.962Z,4.05
2022-10-05T23:13:45.660Z,3.15
2022-10-05T23:16:19.858Z,3.03
2022-10-05T23:18:52.621Z,4.68
2022-10-05T23:21:21.105Z,3.05
2022-10-05T23:23:51.782Z,3.30
2022-10-05T23:26:22.826Z,3.35
2022-10-05T23:28:50.289Z,4.28
2022-10-05T23:31:20.531Z,8.38
2022-10-05T23:33:47.493Z,5.40
2022-10-05T23:36:17.661Z,5.25
2022-10-05T23:38:44.831Z,3.00
2022-10-05T23:41:12.446Z,4.03
2022-10-05T23:43:40.442Z,3.17
2022-10-05T23:46:08.136Z,5.18
2022-10-05T23:48:38.164Z,3.55
2022-10-05T23:51:12.831Z,2.97
2022-10-05T23:53:40.308Z,6.13
2022-10-05T23:56:07.423Z,3.83
2022-10-05T23:58:34.728Z,3.45
